Time;durP1;ratioP1;P1;durP2;ratioP2;P2;SDS_P1;SDS_P2;PMS_P1;PMS_P2;Temp;Humidity;BMP_temperature;BMP_pressure;BME280_temperature;BME280_humidity;BME280_pressure;Samples;Min_cycle;Max_cycle;Signal;HPM_P1;HPM_P2
2022/07/29 00:00:06;;;;;;;9.53;8.73;;;;;;;20.02;98.36;156509.91;5071515;28;20449;-77
2022/07/29 00:02:32;;;;;;;8.43;7.63;;;;;;;20.07;98.32;156521.69;5071680;28;20536;-76
2022/07/29 00:05:01;;;;;;;9.63;8.63;;;;;;;20.08;98.44;156525.59;5106822;28;20442;-77
2022/07/29 00:07:28;;;;;;;10.23;9.33;;;;;;;20.07;99.72;156522.94;5073944;28;20513;-76
2022/07/29 00:09:54;;;;;;;9.40;8.50;;;;;;;20.10;99.66;156529.47;5070807;28;20500;-76
2022/07/29 00:12:22;;;;;;;10.23;9.20;;;;;;;20.10;99.96;156529.47;5071686;28;20430;-76
2022/07/29 00:14:49;;;;;;;10.30;9.40;;;;;;;20.06;99.65;156520.38;5073429;28;20484;-76
2022/07/29 00:17:15;;;;;;;9.87;9.07;;;;;;;20.03;100.00;156512.53;5071984;28;20473;-76
2022/07/29 00:19:42;;;;;;;10.50;9.50;;;;;;;20.03;100.00;156513.88;5070884;28;20497;-76
2022/07/29 00:22:10;;;;;;;10.53;9.63;;;;;;;19.99;100.00;156502.09;5055237;28;20442;-76
2022/07/29 00:24:37;;;;;;;9.00;8.30;;;;;;;19.99;100.00;156502.09;5106226;28;20481;-76
2022/07/29 00:27:04;;;;;;;10.30;9.30;;;;;;;20.02;100.00;156509.91;5055631;28;20432;-76
2022/07/29 00:29:31;;;;;;;10.90;9.30;;;;;;;19.96;100.00;156494.31;5087894;28;20450;-76
2022/07/29 00:31:57;;;;;;;10.17;9.27;;;;;;;19.97;100.00;156498.19;5071840;28;20469;-76
2022/07/29 00:37:09;;;;;;;9.30;8.40;;;;;;;19.92;100.00;156483.84;5106303;28;20460;-76
2022/07/29 00:39:36;;;;;;;9.97;9.07;;;;;;;19.86;100.00;156469.50;5061585;28;20481;-76
2022/07/29 00:42:04;;;;;;;9.37;8.57;;;;;;;19.86;100.00;156468.19;5070987;28;20995;-77
2022/07/29 00:44:31;;;;;;;10.23;9.20;;;;;;;19.83;100.00;156460.41;5105534;28;20449;-76
2022/07/29 00:46:57;;;;;;;10.50;9.60;;;;;;;19.78;100.00;156448.63;5072037;28;20495;-77
2022/07/29 00:49:24;;;;;;;10.37;9.47;;;;;;;19.74;100.00;156436.91;5072329;28;20499;-77
2022/07/29 00:51:51;;;;;;;9.50;8.50;;;;;;;19.75;100.00;156439.56;5071443;28;20426;-76
2022/07/29 00:54:19;;;;;;;9.97;8.73;;;;;;;19.74;100.00;156436.91;5071165;28;20465;-76
2022/07/29 00:56:46;;;;;;;10.13;9.13;;;;;;;19.68;100.00;156422.56;5071667;28;20788;-77
2022/07/29 00:59:12;;;;;;;9.70;8.87;;;;;;;19.68;100.00;156421.25;5069561;28;20527;-76
2022/07/29 01:01:39;;;;;;;9.30;8.57;;;;;;;19.67;100.00;156418.69;5105644;28;20442;-77
2022/07/29 01:04:08;;;;;;;9.70;8.83;;;;;;;19.64;100.00;156412.16;5102769;28;20553;-76
2022/07/29 01:06:35;;;;;;;8.70;7.90;;;;;;;19.62;100.00;156405.66;5105527;28;20917;-76
2022/07/29 01:09:03;;;;;;;8.70;7.90;;;;;;;19.63;100.00;156409.53;5104924;28;20838;-76
2022/07/29 01:11:31;;;;;;;9.43;8.37;;;;;;;19.60;100.00;156400.41;5105989;28;20478;-76
2022/07/29 01:13:57;;;;;;;9.37;8.47;;;;;;;19.58;100.00;156395.19;5070924;28;21041;-76
2022/07/29 01:16:29;;;;;;;8.70;8.00;;;;;;;19.58;100.00;156396.50;5072754;28;20978;-76
2022/07/29 01:19:03;;;;;;;9.03;8.20;;;;;;;19.55;100.00;156388.69;5104850;28;20485;-76
2022/07/29 01:21:45;;;;;;;9.10;8.30;;;;;;;19.56;100.00;156390.00;5104072;28;20465;-76
2022/07/29 01:24:19;;;;;;;8.53;7.83;;;;;;;19.54;100.00;156384.78;5104238;28;20528;-76
2022/07/29 01:26:49;;;;;;;8.40;7.70;;;;;;;19.56;100.00;156390.00;5070812;28;20476;-76
2022/07/29 01:29:23;;;;;;;8.20;7.50;;;;;;;19.53;100.00;156382.16;5070864;28;20940;-76
2022/07/29 01:31:55;;;;;;;8.53;7.73;;;;;;;19.54;100.00;156384.78;5103534;28;20434;-76
2022/07/29 01:34:26;;;;;;;9.23;8.53;;;;;;;19.53;100.00;156382.16;5070804;28;20772;-83
2022/07/29 01:36:58;;;;;;;9.17;8.37;;;;;;;19.48;100.00;156370.44;5071891;28;20551;-83
2022/07/29 01:39:28;;;;;;;9.30;8.53;;;;;;;19.49;100.00;156371.72;5071493;28;20458;-84
2022/07/29 01:41:58;;;;;;;9.83;8.93;;;;;;;19.43;100.00;156358.69;5103899;28;20544;-84
2022/07/29 01:44:28;;;;;;;9.40;8.50;;;;;;;19.37;100.00;156343.06;5103614;28;20537;-84
2022/07/29 01:46:57;;;;;;;8.93;8.13;;;;;;;19.34;100.00;156335.19;5103958;28;20512;-84
2022/07/29 01:49:26;;;;;;;9.43;8.63;;;;;;;19.30;100.00;156323.47;5072714;28;20424;-83
2022/07/29 01:51:56;;;;;;;8.97;8.27;;;;;;;19.28;100.00;156318.22;5070051;28;20450;-84
2022/07/29 01:54:27;;;;;;;7.90;7.20;;;;;;;19.26;100.00;156314.34;5071742;28;20442;-84
2022/07/29 01:56:57;;;;;;;8.37;7.67;;;;;;;19.24;100.00;156307.84;5103435;28;20454;-84
2022/07/29 01:59:24;;;;;;;8.07;6.83;;;;;;;19.17;100.00;156290.88;5070077;28;20457;-83
2022/07/29 02:01:54;;;;;;;8.23;7.60;;;;;;;19.19;100.00;156294.81;5104002;28;20792;-84
2022/07/29 02:04:21;;;;;;;7.53;6.93;;;;;;;19.15;100.00;156284.34;5103582;28;20512;-83
2022/07/29 02:06:50;;;;;;;7.57;6.97;;;;;;;19.12;100.00;156276.53;5102811;28;20450;-84
2022/07/29 02:09:18;;;;;;;7.70;6.90;;;;;;;19.09;100.00;156270.00;5104607;28;20524;-84
2022/07/29 02:11:56;;;;;;;7.20;6.60;;;;;;;19.06;100.00;156262.19;5070331;28;20474;-84
2022/07/29 02:14:24;;;;;;;8.00;7.20;;;;;;;19.05;100.00;156259.59;5102964;28;20479;-84
2022/07/29 02:16:54;;;;;;;7.70;7.00;;;;;;;19.01;100.00;156249.16;5053622;28;20512;-84
2022/07/29 02:19:23;;;;;;;6.97;6.37;;;;;;;19.02;100.00;156251.78;5070183;28;20473;-84
2022/07/29 02:21:52;;;;;;;6.87;6.27;;;;;;;19.01;100.00;156249.16;5054072;28;20797;-83
2022/07/29 02:24:19;;;;;;;7.90;7.30;;;;;;;19.01;100.00;156249.16;5051946;28;20448;-83
2022/07/29 02:26:46;;;;;;;7.70;7.10;;;;;;;18.99;100.00;156242.66;5070455;28;20477;-83
2022/07/29 02:29:14;;;;;;;7.27;6.67;;;;;;;18.97;100.00;156238.75;5104822;28;20442;-84
2022/07/29 02:31:43;;;;;;;7.43;6.73;;;;;;;18.98;100.00;156240.06;5070756;28;20541;-84
2022/07/29 02:34:11;;;;;;;6.73;6.23;;;;;;;18.96;100.00;156236.13;5070005;28;20442;-84
2022/07/29 02:36:39;;;;;;;6.73;6.03;;;;;;;18.94;100.00;156229.63;5071873;28;20785;-84
2022/07/29 02:39:05;;;;;;;7.30;6.67;;;;;;;18.88;100.00;156215.28;5075558;28;20556;-84
2022/07/29 02:41:38;;;;;;;7.67;6.87;;;;;;;18.88;100.00;156215.28;5109940;28;20476;-84
2022/07/29 02:44:10;;;;;;;7.50;6.90;;;;;;;18.91;100.00;156221.78;5071487;28;20472;-83
2022/07/29 02:46:37;;;;;;;7.27;6.57;;;;;;;18.87;100.00;156212.72;5071313;28;20878;-83
2022/07/29 02:49:09;;;;;;;7.27;6.67;;;;;;;18.84;100.00;156204.88;5071628;28;20437;-83
2022/07/29 02:51:43;;;;;;;7.17;6.57;;;;;;;18.82;100.00;156199.69;5103173;28;20454;-83
2022/07/29 02:54:11;;;;;;;7.97;7.37;;;;;;;18.80;100.00;156194.44;5103753;28;20446;-83
2022/07/29 02:56:39;;;;;;;7.60;6.90;;;;;;;18.81;100.00;156197.06;5073567;28;20487;-83
2022/07/29 02:59:10;;;;;;;7.27;6.60;;;;;;;18.80;100.00;156195.75;5075020;28;20559;-83
2022/07/29 03:01:41;;;;;;;8.20;7.50;;;;;;;18.87;100.00;156212.72;5075639;28;20450;-83
2022/07/29 03:04:09;;;;;;;8.30;7.60;;;;;;;18.81;100.00;156197.06;5090588;28;20540;-83
2022/07/29 03:06:37;;;;;;;7.70;7.00;;;;;;;18.77;100.00;156186.66;5107693;28;20508;-84
2022/07/29 03:09:04;;;;;;;7.47;6.77;;;;;;;18.80;100.00;156194.44;5108201;28;20525;-84
2022/07/29 03:11:31;;;;;;;7.10;6.50;;;;;;;18.81;100.00;156197.06;5073737;28;20466;-84
2022/07/29 03:13:58;;;;;;;7.03;6.43;;;;;;;18.76;100.00;156185.34;5073146;28;20461;-83
2022/07/29 03:16:26;;;;;;;7.77;7.07;;;;;;;18.72;100.00;156174.91;5107522;28;20481;-83
2022/07/29 03:18:53;;;;;;;7.43;6.80;;;;;;;18.66;100.00;156158.00;5072919;28;20878;-84
2022/07/29 03:21:20;;;;;;;7.33;6.63;;;;;;;18.64;100.00;156152.75;5106137;28;21023;-84
2022/07/29 03:23:48;;;;;;;7.80;7.20;;;;;;;18.64;100.00;156152.75;5073327;28;20532;-83
2022/07/29 03:26:15;;;;;;;8.33;7.63;;;;;;;18.57;100.00;156135.84;5073572;28;20536;-83
2022/07/29 03:28:42;;;;;;;7.77;7.17;;;;;;;18.53;100.00;156125.38;5107156;28;20446;-83
2022/07/29 03:31:08;;;;;;;7.43;6.77;;;;;;;18.52;100.00;156122.81;5072902;28;20461;-83
2022/07/29 03:33:35;;;;;;;7.80;7.00;;;;;;;18.55;100.00;156130.63;5106626;28;20453;-83
2022/07/29 03:36:02;;;;;;;8.17;7.47;;;;;;;18.57;100.00;156134.53;5074383;28;20463;-83
2022/07/29 03:38:30;;;;;;;7.60;6.90;;;;;;;18.58;100.00;156137.13;5074983;28;20504;-83
2022/07/29 03:41:02;;;;;;;7.90;7.20;;;;;;;18.61;100.00;156146.22;5105047;28;20485;-84
2022/07/29 03:43:32;;;;;;;7.20;6.60;;;;;;;18.55;100.00;156130.63;5072986;28;20446;-83
2022/07/29 03:45:59;;;;;;;7.73;7.03;;;;;;;18.54;100.00;156126.69;5073042;28;20481;-83
2022/07/29 03:48:26;;;;;;;8.10;7.40;;;;;;;18.54;100.00;156128.00;5071775;28;20477;-83
2022/07/29 03:50:53;;;;;;;6.87;6.27;;;;;;;18.54;100.00;156126.69;5072537;28;20488;-83
2022/07/29 03:53:20;;;;;;;7.10;6.47;;;;;;;18.54;100.00;156126.69;5073639;28;20418;-83
2022/07/29 03:55:49;;;;;;;7.90;7.00;;;;;;;18.51;100.00;156120.19;5055760;28;20546;-83
2022/07/29 03:58:19;;;;;;;7.40;6.80;;;;;;;18.49;100.00;156113.66;5072457;28;20481;-83
2022/07/29 04:00:48;;;;;;;7.50;6.70;;;;;;;18.46;100.00;156105.81;5073328;28;20450;-83
2022/07/29 04:03:15;;;;;;;7.53;6.83;;;;;;;18.47;100.00;156109.78;5106205;28;20868;-84
2022/07/29 04:05:42;;;;;;;7.60;6.90;;;;;;;18.43;100.00;156099.28;5073832;28;20441;-83
2022/07/29 04:08:09;;;;;;;7.90;7.00;;;;;;;18.42;100.00;156095.41;5071808;28;20503;-83
2022/07/29 04:10:35;;;;;;;7.13;6.53;;;;;;;18.40;100.00;156091.47;5074540;28;20449;-83
2022/07/29 04:13:02;;;;;;;7.53;6.93;;;;;;;18.41;100.00;156092.78;5056420;28;20929;-83
2022/07/29 04:15:30;;;;;;;7.20;6.50;;;;;;;18.40;100.00;156090.22;5072640;28;20925;-83
2022/07/29 04:17:57;;;;;;;6.30;5.80;;;;;;;18.38;100.00;156084.97;5070604;28;20552;-83
2022/07/29 04:20:24;;;;;;;7.10;6.50;;;;;;;18.35;100.00;156078.44;5073201;28;20839;-83
2022/07/29 04:22:51;;;;;;;7.27;6.67;;;;;;;18.38;100.00;156086.28;5073543;28;20635;-83
2022/07/29 04:25:17;;;;;;;7.00;6.40;;;;;;;18.40;100.00;156090.22;5074070;28;20523;-83
2022/07/29 04:30:24;;;;;;;6.97;6.37;;;;;;;18.39;100.00;156087.59;5073794;28;20799;-84
2022/07/29 04:32:53;;;;;;;8.10;6.73;;;;;;;18.40;100.00;156091.47;5082437;28;20534;-86
2022/07/29 04:35:20;;;;;;;6.63;6.13;;;;;;;18.42;100.00;156095.41;5107003;28;20469;-84
2022/07/29 04:37:47;;;;;;;8.13;7.03;;;;;;;18.44;100.00;156100.59;5099786;28;20503;-83
2022/07/29 04:40:13;;;;;;;7.87;7.10;;;;;;;18.49;100.00;156113.66;5105945;28;20505;-83
2022/07/29 04:42:40;;;;;;;6.80;5.90;;;;;;;18.54;100.00;156126.69;5105794;28;20796;-83
2022/07/29 04:45:07;;;;;;;6.67;6.10;;;;;;;18.53;100.00;156125.38;5072364;28;20813;-84
2022/07/29 04:47:34;;;;;;;6.20;5.70;;;;;;;18.63;100.00;156150.16;5073550;28;20544;-83
2022/07/29 04:50:03;;;;;;;6.40;5.90;;;;;;;18.66;100.00;156158.00;5074289;28;20487;-83
2022/07/29 04:52:30;;;;;;;5.53;5.13;;;;;;;18.68;100.00;156164.50;5072442;28;20441;-83
2022/07/29 04:54:56;;;;;;;6.57;5.97;;;;;;;18.81;100.00;156197.06;5070742;28;20473;-83
2022/07/29 04:57:23;;;;;;;6.60;6.00;;;;;;;19.00;100.00;156246.59;5071741;28;20528;-83
2022/07/29 04:59:50;;;;;;;6.83;6.17;;;;;;;19.24;100.00;156307.84;5073052;28;20469;-84
2022/07/29 05:02:16;;;;;;;6.40;5.77;;;;;;;19.41;100.00;156353.47;5070595;28;20883;-83
2022/07/29 05:04:43;;;;;;;6.50;6.00;;;;;;;19.48;99.62;156370.44;5071542;28;20450;-83
2022/07/29 05:07:11;;;;;;;5.27;4.80;;;;;;;19.63;99.84;156408.22;5072400;28;20533;-83
2022/07/29 05:09:38;;;;;;;7.23;5.57;;;;;;;19.77;98.40;156444.75;5104757;28;20541;-84
2022/07/29 05:12:06;;;;;;;5.83;5.27;;;;;;;19.99;97.87;156503.41;5071889;28;20434;-84
2022/07/29 05:14:32;;;;;;;5.33;4.53;;;;;;;20.22;96.18;156560.81;5102956;28;20509;-83
2022/07/29 05:16:59;;;;;;;5.23;4.83;;;;;;;20.41;95.50;156611.69;5072314;28;20466;-83
2022/07/29 05:19:26;;;;;;;5.03;4.63;;;;;;;20.62;94.60;156666.47;5104122;28;20545;-83
2022/07/29 05:21:53;;;;;;;4.87;4.47;;;;;;;20.79;92.57;156709.53;5104357;28;20449;-83
2022/07/29 05:24:21;;;;;;;3.90;3.60;;;;;;;20.98;91.36;156757.81;5104435;28;20528;-83
2022/07/29 05:26:47;;;;;;;5.27;4.50;;;;;;;21.03;89.46;156770.88;5072097;28;20430;-83
2022/07/29 05:29:14;;;;;;;5.50;5.10;;;;;;;21.11;89.40;156793.13;5071894;28;20796;-84
2022/07/29 05:31:41;;;;;;;4.67;4.37;;;;;;;21.24;89.07;156825.72;5072842;28;20444;-84
2022/07/29 05:34:07;;;;;;;4.40;4.00;;;;;;;21.39;88.63;156864.91;5069019;28;20904;-84
2022/07/29 05:36:34;;;;;;;4.87;4.40;;;;;;;21.47;89.06;156885.75;5103461;28;20544;-84
2022/07/29 05:39:01;;;;;;;4.90;4.50;;;;;;;21.54;88.93;156904.06;5070711;28;20541;-84
2022/07/29 05:41:32;;;;;;;5.40;4.80;;;;;;;21.75;88.57;156958.91;5069622;28;20461;-84
2022/07/29 05:43:59;;;;;;;5.17;4.67;;;;;;;21.73;86.44;156952.38;5068623;28;20481;-84
2022/07/29 05:46:26;;;;;;;4.57;4.17;;;;;;;21.65;86.58;156932.78;5070040;28;20913;-85
2022/07/29 05:48:52;;;;;;;4.60;4.20;;;;;;;21.61;88.73;156922.31;5104604;28;20438;-84
2022/07/29 05:51:19;;;;;;;5.30;4.80;;;;;;;21.73;88.04;156953.69;5072690;28;20430;-85
2022/07/29 05:53:46;;;;;;;4.93;4.53;;;;;;;21.84;88.56;156981.09;5103240;28;21823;-84
2022/07/29 05:56:13;;;;;;;4.87;4.27;;;;;;;21.84;87.19;156982.38;5070613;28;20866;-84
2022/07/29 05:58:41;;;;;;;4.83;4.43;;;;;;;21.81;88.28;156973.25;5068988;28;20499;-85
2022/07/29 06:01:08;;;;;;;4.80;4.40;;;;;;;21.76;88.80;156961.47;5072236;28;20469;-84
2022/07/29 06:03:37;;;;;;;4.93;4.53;;;;;;;21.99;88.21;157019.00;5070017;28;20438;-85
2022/07/29 06:06:05;;;;;;;4.67;4.27;;;;;;;22.26;87.32;157089.53;5068774;28;20875;-85
2022/07/29 06:08:33;;;;;;;4.47;4.07;;;;;;;22.48;85.93;157145.69;5071680;28;20450;-85
2022/07/29 06:11:00;;;;;;;4.07;3.77;;;;;;;22.66;85.02;157194.09;5072946;28;20434;-85
2022/07/29 06:13:27;;;;;;;4.40;4.00;;;;;;;22.84;83.58;157241.13;5071753;28;20482;-85
2022/07/29 06:15:55;;;;;;;4.63;4.00;;;;;;;22.92;82.30;157262.03;5071339;28;20497;-85
2022/07/29 06:18:23;;;;;;;4.53;4.13;;;;;;;22.90;81.16;157255.50;5069894;28;20528;-85
2022/07/29 06:20:50;;;;;;;5.00;4.00;;;;;;;23.06;82.91;157296.00;5061585;28;20474;-76
2022/07/29 06:23:17;;;;;;;4.53;4.13;;;;;;;23.38;81.80;157379.63;5069512;28;20515;-76
2022/07/29 06:25:44;;;;;;;4.40;4.00;;;;;;;23.65;80.83;157450.25;5102444;28;20446;-76
2022/07/29 06:28:11;;;;;;;4.53;3.60;;;;;;;23.95;79.37;157528.69;5069333;28;20821;-77
2022/07/29 06:30:38;;;;;;;3.93;3.50;;;;;;;24.23;76.97;157601.97;5069797;28;20524;-76
2022/07/29 06:33:06;;;;;;;3.90;3.47;;;;;;;24.47;75.45;157663.44;5071757;28;20540;-76
2022/07/29 06:35:35;;;;;;;4.20;3.80;;;;;;;24.72;75.72;157728.88;5069621;28;20463;-78
2022/07/29 06:38:02;;;;;;;3.87;3.57;;;;;;;25.08;74.02;157820.47;5096750;28;20453;-76
2022/07/29 06:43:13;;;;;;;4.10;3.77;;;;;;;25.27;71.56;157871.53;5105987;28;20453;-77
2022/07/29 06:45:40;;;;;;;4.03;3.43;;;;;;;25.39;68.72;157902.91;5107429;28;20441;-76
2022/07/29 06:48:08;;;;;;;4.30;3.90;;;;;;;25.51;70.71;157931.75;5107399;28;20449;-77
2022/07/29 06:50:35;;;;;;;4.83;3.47;;;;;;;25.86;70.24;158024.72;5076106;28;20890;-76
2022/07/29 06:53:02;;;;;;;4.37;3.97;;;;;;;26.04;67.84;158070.53;5106932;28;20442;-77
2022/07/29 06:55:29;;;;;;;4.00;3.70;;;;;;;25.95;68.25;158046.94;5073234;28;20499;-77
2022/07/29 06:57:55;;;;;;;4.17;3.77;;;;;;;25.77;65.81;158001.13;5098047;28;20808;-77
2022/07/29 07:00:22;;;;;;;4.43;4.07;;;;;;;25.61;66.92;157959.25;5057601;28;20559;-77
2022/07/29 07:02:49;;;;;;;3.83;3.53;;;;;;;25.42;68.06;157910.75;5074044;28;20457;-77
2022/07/29 07:05:17;;;;;;;5.77;4.27;;;;;;;25.45;69.13;157917.31;5072986;28;20452;-77
2022/07/29 07:07:44;;;;;;;4.20;3.90;;;;;;;25.58;67.60;157951.38;5104785;28;20458;-77
2022/07/29 07:10:10;;;;;;;3.93;3.63;;;;;;;25.71;69.51;157985.41;5072666;28;20470;-77
2022/07/29 07:12:37;;;;;;;4.70;4.30;;;;;;;25.62;66.58;157961.88;5071206;28;20959;-77
2022/07/29 07:15:05;;;;;;;5.10;4.70;;;;;;;25.55;69.53;157942.25;5072301;28;20446;-77
2022/07/29 07:17:32;;;;;;;4.50;4.10;;;;;;;25.78;68.30;158002.47;5091452;28;20445;-77
2022/07/29 07:19:59;;;;;;;5.00;4.60;;;;;;;25.93;67.60;158043.03;5106335;28;21015;-77
2022/07/29 07:22:27;;;;;;;6.77;5.13;;;;;;;26.09;65.37;158083.63;5072555;28;20855;-77
2022/07/29 07:24:54;;;;;;;5.60;5.20;;;;;;;25.97;67.06;158052.22;5072236;28;20449;-77
2022/07/29 07:27:20;;;;;;;5.40;4.90;;;;;;;25.81;66.77;158011.63;5072049;28;20454;-77
2022/07/29 07:29:47;;;;;;;5.80;5.30;;;;;;;25.78;67.07;158002.47;5073335;28;20469;-77
2022/07/29 07:32:15;;;;;;;5.70;5.20;;;;;;;25.76;67.93;157997.22;5104516;28;20442;-77
2022/07/29 07:34:42;;;;;;;5.90;5.40;;;;;;;25.79;65.25;158006.38;5070907;28;20452;-77
2022/07/29 07:37:09;;;;;;;6.40;5.90;;;;;;;25.66;66.23;157972.34;5104531;28;20507;-77
2022/07/29 07:39:37;;;;;;;6.63;5.37;;;;;;;25.71;65.49;157985.41;5074455;28;20473;-77
2022/07/29 07:42:04;;;;;;;6.27;5.80;;;;;;;25.69;64.17;157980.19;5105283;28;20482;-77
2022/07/29 07:44:31;;;;;;;6.23;5.73;;;;;;;25.42;67.55;157909.44;5072024;28;20446;-77
2022/07/29 07:46:58;;;;;;;6.20;5.70;;;;;;;25.60;67.19;157955.34;5070566;28;20508;-77
2022/07/29 07:49:24;;;;;;;7.70;6.50;;;;;;;26.04;65.95;158070.53;5072320;28;20442;-77
2022/07/29 07:51:52;;;;;;;7.40;6.10;;;;;;;26.38;63.87;158158.31;5105718;28;20445;-77
2022/07/29 07:54:19;;;;;;;10.00;5.60;;;;;;;26.57;62.98;158208.06;5106147;28;20445;-77
2022/07/29 07:56:48;;;;;;;6.50;6.00;;;;;;;26.61;63.58;158219.84;5104381;28;20525;-77
2022/07/29 07:59:15;;;;;;;6.93;6.20;;;;;;;26.74;62.10;158251.31;5073388;28;20461;-77
2022/07/29 08:01:42;;;;;;;6.13;5.63;;;;;;;26.75;61.38;158253.91;5072461;28;20523;-77
2022/07/29 08:04:08;;;;;;;6.40;5.90;;;;;;;26.84;61.29;158277.56;5071451;28;20438;-76
2022/07/29 08:06:36;;;;;;;6.57;5.97;;;;;;;26.88;62.63;158288.00;5068801;28;20446;-76
2022/07/29 08:09:03;;;;;;;5.77;5.37;;;;;;;27.28;60.23;158392.84;5071396;28;20452;-76
2022/07/29 08:11:30;;;;;;;6.13;5.53;;;;;;;27.46;60.13;158440.06;5105732;28;20920;-76
2022/07/29 08:13:58;;;;;;;6.20;5.70;;;;;;;27.50;59.93;158449.25;5105581;28;20897;-78
2022/07/29 08:16:25;;;;;;;6.63;6.13;;;;;;;27.83;59.22;158534.44;5072714;28;20461;-79
2022/07/29 08:18:56;;;;;;;6.43;5.83;;;;;;;27.92;58.22;158558.03;5071802;28;20446;-79
2022/07/29 08:21:24;;;;;;;6.20;5.70;;;;;;;28.06;58.12;158594.78;5067507;28;20517;-79
2022/07/29 08:23:52;;;;;;;5.93;5.43;;;;;;;28.23;57.86;158639.34;5067734;28;20883;-79
2022/07/29 08:26:20;;;;;;;6.57;6.00;;;;;;;28.44;56.83;158693.09;5102410;28;20465;-82
2022/07/29 08:28:50;;;;;;;6.53;6.03;;;;;;;28.33;57.66;158665.56;5075031;28;20430;-79
2022/07/29 08:31:18;;;;;;;6.17;5.73;;;;;;;28.39;57.07;158682.63;5074214;28;20442;-79
2022/07/29 08:33:44;;;;;;;6.33;5.83;;;;;;;28.69;58.46;158760.06;5106637;28;20446;-87
2022/07/29 08:36:12;;;;;;;6.00;5.60;;;;;;;28.86;55.86;158804.63;5073854;28;20504;-88
2022/07/29 08:38:39;;;;;;;6.60;6.00;;;;;;;29.10;55.56;158865.00;5072499;28;20687;-88
2022/07/29 08:41:06;;;;;;;6.93;6.33;;;;;;;28.77;55.75;158781.03;5055391;28;20589;-88
2022/07/29 08:43:37;;;;;;;6.93;6.23;;;;;;;28.63;56.97;158742.97;5045874;28;20707;-88
2022/07/29 08:46:06;;;;;;;6.97;6.27;;;;;;;28.45;56.86;158697.06;5102814;28;20932;-88
2022/07/29 08:48:35;;;;;;;7.13;6.53;;;;;;;28.05;57.75;158592.16;5104300;28;20454;-88
2022/07/29 08:51:02;;;;;;;7.03;6.43;;;;;;;27.68;58.16;158496.41;5067869;28;20445;-84
2022/07/29 08:53:30;;;;;;;7.20;6.17;;;;;;;28.36;57.44;158674.75;5068091;28;20456;-84
2022/07/29 08:55:57;;;;;;;9.93;6.30;;;;;;;28.54;56.28;158719.34;5062315;28;20548;-82
2022/07/29 08:58:24;;;;;;;6.73;6.23;;;;;;;28.42;56.11;158689.19;5104936;28;20541;-85
2022/07/29 09:00:53;;;;;;;7.00;6.50;;;;;;;28.64;54.98;158745.63;5070173;28;20513;-84
2022/07/29 09:03:21;;;;;;;6.50;6.00;;;;;;;28.79;55.76;158786.28;5103680;28;20538;-84
2022/07/29 09:05:50;;;;;;;7.57;7.00;;;;;;;28.66;54.40;158752.19;5067315;28;20454;-84
2022/07/29 09:08:18;;;;;;;7.60;6.93;;;;;;;28.67;55.31;158754.81;5070269;28;20545;-85
2022/07/29 09:10:45;;;;;;;6.37;5.87;;;;;;;29.20;53.49;158892.53;5072676;28;20530;-84
2022/07/29 09:13:12;;;;;;;6.53;6.03;;;;;;;29.06;53.35;158855.81;5069700;28;20573;-84
2022/07/29 09:15:39;;;;;;;7.43;6.83;;;;;;;28.64;52.29;158745.63;5070500;28;20537;-84
2022/07/29 09:18:06;;;;;;;7.30;6.70;;;;;;;28.14;55.05;158617.09;5103005;28;20434;-84
2022/07/29 09:23:15;;;;;;;6.93;6.43;;;;;;;27.99;56.46;158577.69;5070057;28;20473;-82
2022/07/29 09:25:42;;;;;;;6.80;6.20;;;;;;;28.12;56.83;158611.81;5071494;28;20445;-84
2022/07/29 09:28:10;;;;;;;6.93;6.33;;;;;;;28.59;57.06;158733.78;5072445;28;20533;-84
2022/07/29 09:30:37;;;;;;;7.30;6.70;;;;;;;28.64;56.34;158745.63;5103989;28;20552;-85
2022/07/29 09:33:04;;;;;;;8.13;7.53;;;;;;;27.99;57.41;158577.69;5104170;28;20500;-84
2022/07/29 09:35:31;;;;;;;7.33;6.73;;;;;;;27.99;57.41;158577.69;5070173;28;20458;-84
2022/07/29 09:37:58;;;;;;;7.10;6.50;;;;;;;27.85;57.12;158539.69;5083763;28;20501;-85
2022/07/29 09:40:28;;;;;;;7.27;6.60;;;;;;;28.05;57.76;158592.16;5052794;28;20517;-84
2022/07/29 09:42:57;;;;;;;8.20;7.50;;;;;;;27.76;57.32;158517.41;5070771;28;20516;-86
2022/07/29 09:45:29;;;;;;;7.63;7.00;;;;;;;27.86;56.94;158542.28;5104397;28;20842;-84
2022/07/29 09:47:58;;;;;;;8.00;7.40;;;;;;;27.65;57.09;158488.53;5067429;28;20960;-84
2022/07/29 09:50:36;;;;;;;8.17;7.43;;;;;;;27.74;60.08;158513.47;5071425;28;20527;-84
2022/07/29 09:53:02;;;;;;;7.70;7.00;;;;;;;27.77;55.32;158521.31;5103087;28;20491;-84
2022/07/29 09:55:30;;;;;;;6.97;6.37;;;;;;;28.84;54.23;158798.06;5069716;28;20438;-84
2022/07/29 09:58:16;;;;;;;7.63;7.03;;;;;;;28.65;54.78;158748.22;5086169;28;20673;-84
2022/07/29 10:00:44;;;;;;;8.57;7.87;;;;;;;28.40;54.66;158683.94;5067593;28;20482;-84
2022/07/29 10:03:11;;;;;;;7.90;7.20;;;;;;;27.80;57.13;158527.84;5070391;28;20789;-82
2022/07/29 10:05:39;;;;;;;7.90;7.10;;;;;;;27.93;56.90;158560.66;5070345;28;20442;-83
2022/07/29 10:08:07;;;;;;;7.90;7.10;;;;;;;28.18;55.69;158626.22;5070416;28;20443;-83
2022/07/29 10:10:36;;;;;;;8.43;7.63;;;;;;;28.51;54.82;158712.81;5103803;28;20444;-84
2022/07/29 10:13:04;;;;;;;7.93;7.33;;;;;;;28.47;55.26;158700.97;5071331;28;20497;-83
2022/07/29 10:15:36;;;;;;;8.20;7.60;;;;;;;28.14;55.09;158617.09;5104502;28;20523;-84
2022/07/29 10:18:07;;;;;;;8.53;7.50;;;;;;;28.19;56.42;158628.88;5101022;28;20454;-83
2022/07/29 10:20:37;;;;;;;8.50;7.80;;;;;;;28.53;55.38;158718.03;5071670;28;20684;-83
2022/07/29 10:23:04;;;;;;;9.17;8.47;;;;;;;28.00;55.81;158579.00;5102200;28;20458;-84
2022/07/29 10:25:31;;;;;;;8.17;7.47;;;;;;;27.63;57.42;158484.63;5103026;28;20450;-83
2022/07/29 10:27:59;;;;;;;7.80;7.10;;;;;;;27.73;58.27;158509.53;5069583;28;20825;-83
2022/07/29 10:30:27;;;;;;;8.77;8.07;;;;;;;27.69;57.16;158499.06;5102898;28;20564;-83
2022/07/29 10:33:12;;;;;;;8.93;8.13;;;;;;;27.89;56.76;158551.47;5067843;28;20825;-83
2022/07/29 10:35:54;;;;;;;8.40;7.70;;;;;;;27.91;57.89;158555.38;5067466;28;20940;-83
2022/07/29 10:38:44;;;;;;;8.80;8.00;;;;;;;27.62;55.95;158480.69;5069965;28;20512;-84
2022/07/29 10:41:37;;;;;;;9.80;9.00;;;;;;;27.30;56.57;158398.06;5100797;28;20573;-84
2022/07/29 10:44:14;;;;;;;9.40;8.60;;;;;;;26.87;57.71;158285.44;5053551;28;20437;-84
2022/07/29 10:46:41;;;;;;;9.27;8.57;;;;;;;26.66;58.45;158230.34;5100197;28;20458;-84
2022/07/29 10:49:10;;;;;;;9.20;8.50;;;;;;;26.52;60.10;158195.00;5087794;28;20459;-83
2022/07/29 10:51:57;;;;;;;11.10;8.23;;;;;;;26.50;60.09;158191.03;5086010;28;20824;-84
2022/07/29 10:54:49;;;;;;;7.80;7.23;;;;;;;26.61;59.31;158218.53;5069402;28;20834;-84
2022/07/29 10:57:20;;;;;;;9.60;8.73;;;;;;;26.39;60.10;158160.94;5071142;28;20454;-83
2022/07/29 10:59:50;;;;;;;9.43;8.73;;;;;;;26.22;60.87;158117.72;5051551;28;20447;-83
2022/07/29 11:02:43;;;;;;;9.47;8.77;;;;;;;26.02;61.57;158065.31;5051684;28;20498;-84
2022/07/29 11:05:11;;;;;;;9.03;8.30;;;;;;;25.79;64.44;158006.38;5032604;28;20927;-83
2022/07/29 11:07:40;;;;;;;9.10;8.30;;;;;;;25.09;71.11;157824.41;5061979;28;20450;-85
2022/07/29 11:10:26;;;;;;;8.23;7.53;;;;;;;23.13;73.99;157314.28;5086121;28;20446;-86
2022/07/29 11:12:55;;;;;;;12.60;8.00;;;;;;;21.93;79.87;157003.31;5069791;28;20534;-88
2022/07/29 11:15:24;;;;;;;11.20;10.20;;;;;;;21.31;91.69;156844.03;5102985;28;20442;-88
2022/07/29 11:18:08;;;;;;;8.40;7.60;;;;;;;20.57;92.77;156653.44;5071278;28;20438;-88
2022/07/29 11:20:41;;;;;;;15.70;10.40;;;;;;;20.65;100.00;156673.03;5072662;28;20710;-89
2022/07/29 11:23:24;;;;;;;12.10;8.30;;;;;;;20.33;99.28;156590.81;5070187;28;20491;-85
2022/07/29 11:26:19;;;;;;;12.20;7.97;;;;;;;19.45;92.72;156362.63;5072918;28;20781;-86
2022/07/29 11:29:00;;;;;;;9.53;6.63;;;;;;;18.17;100.00;156032.88;5107087;28;20472;-92
2022/07/29 11:31:37;;;;;;;7.97;7.17;;;;;;;17.85;100.00;155948.22;5089379;28;20450;-88
2022/07/29 11:34:29;;;;;;;8.00;6.90;;;;;;;18.00;100.00;155988.59;5089229;28;20454;-88
2022/07/29 11:37:15;;;;;;;8.03;7.23;;;;;;;18.16;100.00;156030.25;5067198;28;20776;-88
2022/07/29 11:39:44;;;;;;;9.70;8.67;;;;;;;18.50;100.00;156116.31;5073737;28;20674;-87